sensor_id;sensor_type;location;lat;lon;timestamp;temperature;humidity
31975;DHT22;18500;43.618;1.474;2024-01-07T08:16:32;4.70;1.00
31975;DHT22;18500;43.618;1.474;2024-01-07T08:18:57;4.80;1.00
31975;DHT22;18500;43.618;1.474;2024-01-07T08:21:24;4.80;1.00
31975;DHT22;18500;43.618;1.474;2024-01-07T08:23:50;4.70;1.00
31975;DHT22;18500;43.618;1.474;2024-01-07T08:26:19;4.80;1.00
31975;DHT22;18500;43.618;1.474;2024-01-07T08:28:45;4.80;1.00
31975;DHT22;18500;43.618;1.474;2024-01-07T08:31:11;4.70;1.00
31975;DHT22;18500;43.618;1.474;2024-01-07T08:33:36;4.80;1.00
31975;DHT22;18500;43.618;1.474;2024-01-07T08:36:02;4.70;1.00
31975;DHT22;18500;43.618;1.474;2024-01-07T08:38:27;4.70;1.00
31975;DHT22;18500;43.618;1.474;2024-01-07T08:40:53;4.80;1.00
31975;DHT22;18500;43.618;1.474;2024-01-07T08:43:19;4.70;1.00
31975;DHT22;18500;43.618;1.474;2024-01-07T08:45:44;4.70;1.00
31975;DHT22;18500;43.618;1.474;2024-01-07T08:48:10;4.70;1.00
31975;DHT22;18500;43.618;1.474;2024-01-07T08:50:37;4.80;1.00
31975;DHT22;18500;43.618;1.474;2024-01-07T08:53:03;4.70;1.00
31975;DHT22;18500;43.618;1.474;2024-01-07T08:55:29;4.60;1.00
31975;DHT22;18500;43.618;1.474;2024-01-07T08:57:54;4.40;1.00
31975;DHT22;18500;43.618;1.474;2024-01-07T09:00:20;4.40;1.00
31975;DHT22;18500;43.618;1.474;2024-01-07T09:02:51;4.30;1.00
31975;DHT22;18500;43.618;1.474;2024-01-07T09:05:17;4.20;1.00
31975;DHT22;18500;43.618;1.474;2024-01-07T09:07:42;4.30;1.00
31975;DHT22;18500;43.618;1.474;2024-01-07T09:10:08;4.60;1.00
31975;DHT22;18500;43.618;1.474;2024-01-07T09:12:36;4.70;1.00
31975;DHT22;18500;43.618;1.474;2024-01-07T09:15:04;4.80;1.00
31975;DHT22;18500;43.618;1.474;2024-01-07T09:17:30;4.90;1.00
31975;DHT22;18500;43.618;1.474;2024-01-07T09:19:56;4.90;1.00
31975;DHT22;18500;43.618;1.474;2024-01-07T09:22:22;4.90;1.00
31975;DHT22;18500;43.618;1.474;2024-01-07T09:24:47;4.90;1.00
31975;DHT22;18500;43.618;1.474;2024-01-07T09:27:13;4.70;1.00
31975;DHT22;18500;43.618;1.474;2024-01-07T09:29:39;4.70;1.00
31975;DHT22;18500;43.618;1.474;2024-01-07T09:32:05;4.50;1.00
31975;DHT22;18500;43.618;1.474;2024-01-07T09:34:31;4.70;1.00
31975;DHT22;18500;43.618;1.474;2024-01-07T09:36:56;4.70;1.00
31975;DHT22;18500;43.618;1.474;2024-01-07T09:39:22;4.70;1.00
31975;DHT22;18500;43.618;1.474;2024-01-07T09:41:47;4.70;1.00
31975;DHT22;18500;43.618;1.474;2024-01-07T09:44:13;4.80;1.00
31975;DHT22;18500;43.618;1.474;2024-01-07T09:46:39;4.80;1.00
31975;DHT22;18500;43.618;1.474;2024-01-07T09:49:07;4.80;1.00
31975;DHT22;18500;43.618;1.474;2024-01-07T09:51:35;4.80;1.00
31975;DHT22;18500;43.618;1.474;2024-01-07T09:54:03;4.80;1.00
31975;DHT22;18500;43.618;1.474;2024-01-07T09:56:39;4.90;1.00
31975;DHT22;18500;43.618;1.474;2024-01-07T09:59:07;4.80;1.00
31975;DHT22;18500;43.618;1.474;2024-01-07T10:01:34;4.90;1.00
31975;DHT22;18500;43.618;1.474;2024-01-07T10:04:01;5.10;1.00
31975;DHT22;18500;43.618;1.474;2024-01-07T10:06:27;5.00;1.00
31975;DHT22;18500;43.618;1.474;2024-01-07T10:08:52;5.00;1.00
31975;DHT22;18500;43.618;1.474;2024-01-07T10:11:18;5.10;1.00
31975;DHT22;18500;43.618;1.474;2024-01-07T10:13:47;5.10;1.00
31975;DHT22;18500;43.618;1.474;2024-01-07T10:16:13;5.00;1.00
31975;DHT22;18500;43.618;1.474;2024-01-07T10:18:40;5.00;1.00
31975;DHT22;18500;43.618;1.474;2024-01-07T10:21:06;4.90;1.00
31975;DHT22;18500;43.618;1.474;2024-01-07T10:23:32;5.00;1.00
31975;DHT22;18500;43.618;1.474;2024-01-07T10:25:58;4.90;1.00
31975;DHT22;18500;43.618;1.474;2024-01-07T10:28:23;5.10;1.00
31975;DHT22;18500;43.618;1.474;2024-01-07T10:30:49;5.00;1.00
31975;DHT22;18500;43.618;1.474;2024-01-07T10:33:17;5.10;1.00
31975;DHT22;18500;43.618;1.474;2024-01-07T10:35:48;5.10;1.00
31975;DHT22;18500;43.618;1.474;2024-01-07T10:38:15;5.10;1.00
31975;DHT22;18500;43.618;1.474;2024-01-07T10:40:42;5.00;1.00
31975;DHT22;18500;43.618;1.474;2024-01-07T10:43:09;5.00;1.00
31975;DHT22;18500;43.618;1.474;2024-01-07T10:45:34;5.10;1.00
31975;DHT22;18500;43.618;1.474;2024-01-07T10:48:04;5.10;1.00
31975;DHT22;18500;43.618;1.474;2024-01-07T10:50:33;5.00;1.00
31975;DHT22;18500;43.618;1.474;2024-01-07T10:53:03;5.00;1.00
31975;DHT22;18500;43.618;1.474;2024-01-07T10:55:34;5.10;1.00
31975;DHT22;18500;43.618;1.474;2024-01-07T10:58:03;5.10;1.00
31975;DHT22;18500;43.618;1.474;2024-01-07T11:00:30;4.90;1.00
31975;DHT22;18500;43.618;1.474;2024-01-07T11:03:24;4.90;1.00
31975;DHT22;18500;43.618;1.474;2024-01-07T11:06:03;5.00;1.00
31975;DHT22;18500;43.618;1.474;2024-01-07T11:11:20;5.00;1.00
31975;DHT22;18500;43.618;1.474;2024-01-07T11:13:49;4.90;1.00
31975;DHT22;18500;43.618;1.474;2024-01-07T11:16:41;4.90;1.00
31975;DHT22;18500;43.618;1.474;2024-01-07T11:19:07;5.00;1.00
31975;DHT22;18500;43.618;1.474;2024-01-07T11:21:33;5.00;1.00
31975;DHT22;18500;43.618;1.474;2024-01-07T11:23:58;5.00;1.00
31975;DHT22;18500;43.618;1.474;2024-01-07T11:26:24;5.00;1.00
31975;DHT22;18500;43.618;1.474;2024-01-07T11:28:55;5.10;1.00
31975;DHT22;18500;43.618;1.474;2024-01-07T11:34:08;5.00;1.00
31975;DHT22;18500;43.618;1.474;2024-01-07T11:36:37;4.90;1.00
31975;DHT22;18500;43.618;1.474;2024-01-07T11:39:04;4.90;1.00
31975;DHT22;18500;43.618;1.474;2024-01-07T11:41:33;4.90;1.00
31975;DHT22;18500;43.618;1.474;2024-01-07T11:44:00;4.90;1.00
31975;DHT22;18500;43.618;1.474;2024-01-07T11:46:29;4.90;1.00
31975;DHT22;18500;43.618;1.474;2024-01-07T11:48:58;5.00;1.00
31975;DHT22;18500;43.618;1.474;2024-01-07T11:51:28;5.10;1.00
31975;DHT22;18500;43.618;1.474;2024-01-07T11:53:59;5.20;1.00
31975;DHT22;18500;43.618;1.474;2024-01-07T11:56:25;5.20;1.00
31975;DHT22;18500;43.618;1.474;2024-01-07T11:58:54;5.20;1.00
31975;DHT22;18500;43.618;1.474;2024-01-07T12:01:21;5.40;1.00
31975;DHT22;18500;43.618;1.474;2024-01-07T12:03:47;5.30;1.00
31975;DHT22;18500;43.618;1.474;2024-01-07T12:06:13;5.40;1.00
31975;DHT22;18500;43.618;1.474;2024-01-07T12:08:43;5.50;1.00
31975;DHT22;18500;43.618;1.474;2024-01-07T12:11:12;5.60;1.00
31975;DHT22;18500;43.618;1.474;2024-01-07T12:13:39;5.30;1.00
31975;DHT22;18500;43.618;1.474;2024-01-07T12:16:05;5.40;1.00
31975;DHT22;18500;43.618;1.474;2024-01-07T12:18:31;5.20;1.00
31975;DHT22;18500;43.618;1.474;2024-01-07T12:20:58;5.40;1.00
31975;DHT22;18500;43.618;1.474;2024-01-07T12:23:25;5.30;1.00
31975;DHT22;18500;43.618;1.474;2024-01-07T12:25:52;5.20;1.00
31975;DHT22;18500;43.618;1.474;2024-01-07T12:28:18;5.20;1.00
31975;DHT22;18500;43.618;1.474;2024-01-07T12:30:45;5.40;1.00
31975;DHT22;18500;43.618;1.474;2024-01-07T12:33:11;5.30;1.00
31975;DHT22;18500;43.618;1.474;2024-01-07T12:35:36;5.20;1.00
31975;DHT22;18500;43.618;1.474;2024-01-07T12:38:04;5.40;1.00
31975;DHT22;18500;43.618;1.474;2024-01-07T12:40:30;5.20;1.00
31975;DHT22;18500;43.618;1.474;2024-01-07T12:42:56;5.30;1.00
31975;DHT22;18500;43.618;1.474;2024-01-07T12:45:22;5.20;1.00
31975;DHT22;18500;43.618;1.474;2024-01-07T12:47:48;5.20;1.00
31975;DHT22;18500;43.618;1.474;2024-01-07T12:50:14;5.20;1.00
31975;DHT22;18500;43.618;1.474;2024-01-07T12:52:41;5.20;1.00
31975;DHT22;18500;43.618;1.474;2024-01-07T12:55:07;5.20;1.00
31975;DHT22;18500;43.618;1.474;2024-01-07T12:57:33;5.30;1.00
31975;DHT22;18500;43.618;1.474;2024-01-07T12:59:59;5.30;1.00
31975;DHT22;18500;43.618;1.474;2024-01-07T13:02:25;5.30;1.00
31975;DHT22;18500;43.618;1.474;2024-01-07T13:04:51;5.30;1.00
31975;DHT22;18500;43.618;1.474;2024-01-07T13:07:17;5.40;1.00
31975;DHT22;18500;43.618;1.474;2024-01-07T13:09:43;5.50;1.00
31975;DHT22;18500;43.618;1.474;2024-01-07T13:12:10;5.40;1.00
31975;DHT22;18500;43.618;1.474;2024-01-07T13:14:36;5.30;1.00
31975;DHT22;18500;43.618;1.474;2024-01-07T13:17:02;5.40;1.00
31975;DHT22;18500;43.618;1.474;2024-01-07T13:19:28;5.40;1.00
31975;DHT22;18500;43.618;1.474;2024-01-07T13:21:55;5.40;1.00
31975;DHT22;18500;43.618;1.474;2024-01-07T13:24:23;5.30;1.00
31975;DHT22;18500;43.618;1.474;2024-01-07T13:26:49;5.40;1.00
31975;DHT22;18500;43.618;1.474;2024-01-07T13:29:14;5.50;1.00
31975;DHT22;18500;43.618;1.474;2024-01-07T13:31:40;5.50;1.00
31975;DHT22;18500;43.618;1.474;2024-01-07T13:34:06;5.50;1.00
31975;DHT22;18500;43.618;1.474;2024-01-07T13:36:31;5.50;1.00
31975;DHT22;18500;43.618;1.474;2024-01-07T13:38:57;5.40;1.00
31975;DHT22;18500;43.618;1.474;2024-01-07T13:41:23;5.50;1.00
31975;DHT22;18500;43.618;1.474;2024-01-07T13:43:49;5.50;1.00
31975;DHT22;18500;43.618;1.474;2024-01-07T13:46:14;5.50;1.00
31975;DHT22;18500;43.618;1.474;2024-01-07T13:48:40;5.30;1.00
31975;DHT22;18500;43.618;1.474;2024-01-07T13:51:09;5.40;1.00
31975;DHT22;18500;43.618;1.474;2024-01-07T13:53:34;5.40;1.00
31975;DHT22;18500;43.618;1.474;2024-01-07T13:56:00;5.30;1.00
31975;DHT22;18500;43.618;1.474;2024-01-07T13:58:26;5.30;1.00
31975;DHT22;18500;43.618;1.474;2024-01-07T14:00:51;5.30;1.00
31975;DHT22;18500;43.618;1.474;2024-01-07T14:03:18;5.30;1.00
31975;DHT22;18500;43.618;1.474;2024-01-07T14:05:43;5.30;1.00
31975;DHT22;18500;43.618;1.474;2024-01-07T14:08:09;5.30;1.00
31975;DHT22;18500;43.618;1.474;2024-01-07T14:10:34;5.30;1.00
31975;DHT22;18500;43.618;1.474;2024-01-07T14:13:02;5.30;1.00
31975;DHT22;18500;43.618;1.474;2024-01-07T14:15:28;5.30;1.00
31975;DHT22;18500;43.618;1.474;2024-01-07T14:17:54;5.30;1.00
31975;DHT22;18500;43.618;1.474;2024-01-07T14:20:20;5.30;1.00
31975;DHT22;18500;43.618;1.474;2024-01-07T14:22:47;5.30;1.00
31975;DHT22;18500;43.618;1.474;2024-01-07T14:25:12;5.30;1.00
31975;DHT22;18500;43.618;1.474;2024-01-07T14:27:39;5.30;1.00
31975;DHT22;18500;43.618;1.474;2024-01-07T14:30:05;5.20;1.00
31975;DHT22;18500;43.618;1.474;2024-01-07T14:32:32;5.20;1.00
31975;DHT22;18500;43.618;1.474;2024-01-07T14:34:58;5.30;1.00
31975;DHT22;18500;43.618;1.474;2024-01-07T14:37:24;5.30;1.00
31975;DHT22;18500;43.618;1.474;2024-01-07T14:39:50;5.30;1.00
31975;DHT22;18500;43.618;1.474;2024-01-07T14:42:15;5.30;1.00
31975;DHT22;18500;43.618;1.474;2024-01-07T14:44:41;5.40;1.00
31975;DHT22;18500;43.618;1.474;2024-01-07T14:47:07;5.40;1.00
31975;DHT22;18500;43.618;1.474;2024-01-07T14:49:33;5.40;1.00
31975;DHT22;18500;43.618;1.474;2024-01-07T14:51:59;5.30;1.00
31975;DHT22;18500;43.618;1.474;2024-01-07T14:54:24;5.30;1.00
31975;DHT22;18500;43.618;1.474;2024-01-07T14:56:50;5.30;1.00
31975;DHT22;18500;43.618;1.474;2024-01-07T14:59:16;5.30;1.00
31975;DHT22;18500;43.618;1.474;2024-01-07T15:01:41;5.30;1.00
31975;DHT22;18500;43.618;1.474;2024-01-07T15:04:09;5.40;1.00
31975;DHT22;18500;43.618;1.474;2024-01-07T15:06:40;5.30;1.00
31975;DHT22;18500;43.618;1.474;2024-01-07T15:09:06;5.20;1.00
31975;DHT22;18500;43.618;1.474;2024-01-07T15:11:32;5.30;1.00
31975;DHT22;18500;43.618;1.474;2024-01-07T15:13:58;5.20;1.00
31975;DHT22;18500;43.618;1.474;2024-01-07T15:16:23;5.20;1.00
31975;DHT22;18500;43.618;1.474;2024-01-07T15:18:49;5.30;1.00
31975;DHT22;18500;43.618;1.474;2024-01-07T15:21:14;5.20;1.00
31975;DHT22;18500;43.618;1.474;2024-01-07T15:23:40;5.20;1.00
31975;DHT22;18500;43.618;1.474;2024-01-07T15:26:05;5.20;1.00
31975;DHT22;18500;43.618;1.474;2024-01-07T15:28:31;5.20;1.00
31975;DHT22;18500;43.618;1.474;2024-01-07T15:30:57;5.20;1.00
31975;DHT22;18500;43.618;1.474;2024-01-07T15:33:22;5.20;1.00
31975;DHT22;18500;43.618;1.474;2024-01-07T15:35:48;5.20;1.00
31975;DHT22;18500;43.618;1.474;2024-01-07T15:38:13;5.10;1.00
31975;DHT22;18500;43.618;1.474;2024-01-07T15:40:39;5.10;1.00
31975;DHT22;18500;43.618;1.474;2024-01-07T15:43:05;5.20;1.00
31975;DHT22;18500;43.618;1.474;2024-01-07T15:45:30;5.20;1.00
31975;DHT22;18500;43.618;1.474;2024-01-07T15:47:56;5.10;1.00
31975;DHT22;18500;43.618;1.474;2024-01-07T15:50:21;5.10;1.00
31975;DHT22;18500;43.618;1.474;2024-01-07T15:52:47;5.10;1.00
31975;DHT22;18500;43.618;1.474;2024-01-07T15:55:14;5.10;1.00
31975;DHT22;18500;43.618;1.474;2024-01-07T15:57:41;5.00;1.00
31975;DHT22;18500;43.618;1.474;2024-01-07T16:00:10;5.00;1.00
31975;DHT22;18500;43.618;1.474;2024-01-07T16:02:36;5.00;1.00
31975;DHT22;18500;43.618;1.474;2024-01-07T16:05:01;4.80;1.00
31975;DHT22;18500;43.618;1.474;2024-01-07T16:07:27;4.80;1.00
31975;DHT22;18500;43.618;1.474;2024-01-07T16:09:53;4.70;1.00
31975;DHT22;18500;43.618;1.474;2024-01-07T16:12:18;4.70;1.00
31975;DHT22;18500;43.618;1.474;2024-01-07T16:14:44;4.60;1.00
31975;DHT22;18500;43.618;1.474;2024-01-07T16:17:10;4.60;1.00
31975;DHT22;18500;43.618;1.474;2024-01-07T16:19:35;4.60;1.00
31975;DHT22;18500;43.618;1.474;2024-01-07T16:22:01;4.60;1.00
31975;DHT22;18500;43.618;1.474;2024-01-07T16:24:29;4.70;1.00
31975;DHT22;18500;43.618;1.474;2024-01-07T16:26:54;4.70;1.00
31975;DHT22;18500;43.618;1.474;2024-01-07T16:29:20;4.70;1.00
31975;DHT22;18500;43.618;1.474;2024-01-07T16:31:46;4.70;1.00
31975;DHT22;18500;43.618;1.474;2024-01-07T16:34:11;4.70;1.00
31975;DHT22;18500;43.618;1.474;2024-01-07T16:36:40;4.70;1.00
31975;DHT22;18500;43.618;1.474;2024-01-07T16:39:06;4.80;1.00
31975;DHT22;18500;43.618;1.474;2024-01-07T16:41:32;4.80;1.00
31975;DHT22;18500;43.618;1.474;2024-01-07T16:43:57;4.80;1.00
31975;DHT22;18500;43.618;1.474;2024-01-07T16:46:23;4.80;1.00
31975;DHT22;18500;43.618;1.474;2024-01-07T16:48:50;4.70;1.00
31975;DHT22;18500;43.618;1.474;2024-01-07T16:51:16;4.80;1.00
31975;DHT22;18500;43.618;1.474;2024-01-07T16:53:41;4.80;1.00
31975;DHT22;18500;43.618;1.474;2024-01-07T16:56:07;4.80;1.00
31975;DHT22;18500;43.618;1.474;2024-01-07T16:58:32;4.80;1.00
31975;DHT22;18500;43.618;1.474;2024-01-07T17:00:58;4.80;1.00
31975;DHT22;18500;43.618;1.474;2024-01-07T17:03:25;4.80;1.00
31975;DHT22;18500;43.618;1.474;2024-01-07T17:05:50;4.80;1.00
31975;DHT22;18500;43.618;1.474;2024-01-07T17:08:16;4.80;1.00
31975;DHT22;18500;43.618;1.474;2024-01-07T17:10:44;4.80;1.00
31975;DHT22;18500;43.618;1.474;2024-01-07T17:13:10;4.80;1.00
31975;DHT22;18500;43.618;1.474;2024-01-07T17:15:36;4.80;1.00
31975;DHT22;18500;43.618;1.474;2024-01-07T17:18:04;4.70;1.00
31975;DHT22;18500;43.618;1.474;2024-01-07T17:20:29;4.70;1.00
31975;DHT22;18500;43.618;1.474;2024-01-07T17:22:56;4.70;1.00
31975;DHT22;18500;43.618;1.474;2024-01-07T17:25:22;4.70;1.00
31975;DHT22;18500;43.618;1.474;2024-01-07T17:27:47;4.60;1.00
31975;DHT22;18500;43.618;1.474;2024-01-07T17:30:16;4.60;1.00
31975;DHT22;18500;43.618;1.474;2024-01-07T17:32:42;4.60;1.00
31975;DHT22;18500;43.618;1.474;2024-01-07T17:35:09;4.60;1.00
31975;DHT22;18500;43.618;1.474;2024-01-07T17:37:34;4.70;1.00
31975;DHT22;18500;43.618;1.474;2024-01-07T17:40:02;4.70;1.00
31975;DHT22;18500;43.618;1.474;2024-01-07T17:42:28;4.70;1.00
31975;DHT22;18500;43.618;1.474;2024-01-07T17:44:54;4.70;1.00
31975;DHT22;18500;43.618;1.474;2024-01-07T17:47:20;4.60;1.00
31975;DHT22;18500;43.618;1.474;2024-01-07T17:49:46;4.70;1.00
31975;DHT22;18500;43.618;1.474;2024-01-07T17:52:11;4.70;1.00
31975;DHT22;18500;43.618;1.474;2024-01-07T17:54:38;4.70;1.00
31975;DHT22;18500;43.618;1.474;2024-01-07T17:57:04;4.70;1.00
31975;DHT22;18500;43.618;1.474;2024-01-07T17:59:32;4.70;1.00
31975;DHT22;18500;43.618;1.474;2024-01-07T18:01:59;4.70;1.00
31975;DHT22;18500;43.618;1.474;2024-01-07T18:04:25;4.70;1.00
31975;DHT22;18500;43.618;1.474;2024-01-07T18:06:52;4.70;1.00
31975;DHT22;18500;43.618;1.474;2024-01-07T18:09:17;4.70;1.00
31975;DHT22;18500;43.618;1.474;2024-01-07T18:11:43;4.70;1.00
31975;DHT22;18500;43.618;1.474;2024-01-07T18:14:08;4.70;1.00
31975;DHT22;18500;43.618;1.474;2024-01-07T18:16:37;4.70;1.00
31975;DHT22;18500;43.618;1.474;2024-01-07T18:19:04;4.70;1.00
31975;DHT22;18500;43.618;1.474;2024-01-07T18:21:32;4.70;1.00
31975;DHT22;18500;43.618;1.474;2024-01-07T18:23:58;4.70;1.00
31975;DHT22;18500;43.618;1.474;2024-01-07T18:26:26;4.70;1.00
31975;DHT22;18500;43.618;1.474;2024-01-07T18:28:51;4.70;1.00
31975;DHT22;18500;43.618;1.474;2024-01-07T18:31:17;4.70;1.00
31975;DHT22;18500;43.618;1.474;2024-01-07T18:33:43;4.70;1.00
31975;DHT22;18500;43.618;1.474;2024-01-07T18:36:08;4.70;1.00
31975;DHT22;18500;43.618;1.474;2024-01-07T18:38:35;4.70;1.00
31975;DHT22;18500;43.618;1.474;2024-01-07T18:41:01;4.70;1.00
31975;DHT22;18500;43.618;1.474;2024-01-07T18:43:26;4.70;1.00
31975;DHT22;18500;43.618;1.474;2024-01-07T18:45:52;4.70;1.00
31975;DHT22;18500;43.618;1.474;2024-01-07T18:48:18;4.70;1.00
31975;DHT22;18500;43.618;1.474;2024-01-07T18:50:43;4.60;1.00
31975;DHT22;18500;43.618;1.474;2024-01-07T18:53:09;4.60;1.00
31975;DHT22;18500;43.618;1.474;2024-01-07T18:55:35;4.70;1.00
31975;DHT22;18500;43.618;1.474;2024-01-07T18:58:05;4.60;1.00
31975;DHT22;18500;43.618;1.474;2024-01-07T19:00:33;4.70;1.00
31975;DHT22;18500;43.618;1.474;2024-01-07T19:02:59;4.70;1.00
31975;DHT22;18500;43.618;1.474;2024-01-07T19:05:25;4.70;1.00
31975;DHT22;18500;43.618;1.474;2024-01-07T19:07:51;4.70;1.00
31975;DHT22;18500;43.618;1.474;2024-01-07T19:10:16;4.80;1.00
31975;DHT22;18500;43.618;1.474;2024-01-07T19:12:42;4.70;1.00
31975;DHT22;18500;43.618;1.474;2024-01-07T19:15:08;4.70;1.00
31975;DHT22;18500;43.618;1.474;2024-01-07T19:17:33;4.70;1.00
31975;DHT22;18500;43.618;1.474;2024-01-07T19:20:01;4.70;1.00
31975;DHT22;18500;43.618;1.474;2024-01-07T19:22:26;4.70;1.00
31975;DHT22;18500;43.618;1.474;2024-01-07T19:24:52;4.70;1.00
31975;DHT22;18500;43.618;1.474;2024-01-07T19:27:18;4.70;1.00
31975;DHT22;18500;43.618;1.474;2024-01-07T19:29:43;4.70;1.00
31975;DHT22;18500;43.618;1.474;2024-01-07T19:32:09;4.60;1.00
31975;DHT22;18500;43.618;1.474;2024-01-07T19:34:34;4.60;1.00
31975;DHT22;18500;43.618;1.474;2024-01-07T19:37:00;4.60;1.00
31975;DHT22;18500;43.618;1.474;2024-01-07T19:39:27;4.60;1.00
31975;DHT22;18500;43.618;1.474;2024-01-07T19:41:52;4.70;1.00
31975;DHT22;18500;43.618;1.474;2024-01-07T19:44:18;4.70;1.00
31975;DHT22;18500;43.618;1.474;2024-01-07T19:46:44;4.60;1.00
31975;DHT22;18500;43.618;1.474;2024-01-07T19:49:10;4.60;1.00
31975;DHT22;18500;43.618;1.474;2024-01-07T19:51:37;4.60;1.00
31975;DHT22;18500;43.618;1.474;2024-01-07T19:54:04;4.60;1.00
31975;DHT22;18500;43.618;1.474;2024-01-07T19:56:29;4.60;1.00
31975;DHT22;18500;43.618;1.474;2024-01-07T19:58:55;4.60;1.00
31975;DHT22;18500;43.618;1.474;2024-01-07T20:01:21;4.60;1.00
31975;DHT22;18500;43.618;1.474;2024-01-07T20:03:46;4.60;1.00
31975;DHT22;18500;43.618;1.474;2024-01-07T20:06:12;4.60;1.00
31975;DHT22;18500;43.618;1.474;2024-01-07T20:11:05;4.60;1.00
31975;DHT22;18500;43.618;1.474;2024-01-07T20:13:31;4.60;1.00
31975;DHT22;18500;43.618;1.474;2024-01-07T20:15:58;4.50;1.00
31975;DHT22;18500;43.618;1.474;2024-01-07T20:18:24;4.50;1.00
31975;DHT22;18500;43.618;1.474;2024-01-07T20:20:50;4.50;1.00
31975;DHT22;18500;43.618;1.474;2024-01-07T20:23:15;4.50;1.00
31975;DHT22;18500;43.618;1.474;2024-01-07T20:25:41;4.50;1.00
31975;DHT22;18500;43.618;1.474;2024-01-07T20:28:08;4.50;1.00
31975;DHT22;18500;43.618;1.474;2024-01-07T20:30:33;4.50;1.00
31975;DHT22;18500;43.618;1.474;2024-01-07T20:32:59;4.50;1.00
31975;DHT22;18500;43.618;1.474;2024-01-07T20:35:25;4.50;1.00
31975;DHT22;18500;43.618;1.474;2024-01-07T20:37:50;4.50;1.00
31975;DHT22;18500;43.618;1.474;2024-01-07T20:40:16;4.50;1.00
31975;DHT22;18500;43.618;1.474;2024-01-07T20:42:42;4.50;1.00
31975;DHT22;18500;43.618;1.474;2024-01-07T20:45:08;4.50;1.00
31975;DHT22;18500;43.618;1.474;2024-01-07T20:47:33;4.50;1.00
31975;DHT22;18500;43.618;1.474;2024-01-07T20:49:59;4.50;1.00
31975;DHT22;18500;43.618;1.474;2024-01-07T20:52:25;4.50;1.00
31975;DHT22;18500;43.618;1.474;2024-01-07T20:54:50;4.50;1.00
31975;DHT22;18500;43.618;1.474;2024-01-07T20:57:16;4.50;1.00
31975;DHT22;18500;43.618;1.474;2024-01-07T20:59:42;4.50;1.00
31975;DHT22;18500;43.618;1.474;2024-01-07T21:02:09;4.50;1.00
31975;DHT22;18500;43.618;1.474;2024-01-07T21:04:36;4.50;1.00
31975;DHT22;18500;43.618;1.474;2024-01-07T21:07:02;4.50;1.00
31975;DHT22;18500;43.618;1.474;2024-01-07T21:09:27;4.50;1.00
31975;DHT22;18500;43.618;1.474;2024-01-07T21:11:53;4.50;1.00
31975;DHT22;18500;43.618;1.474;2024-01-07T21:14:19;4.40;1.00
31975;DHT22;18500;43.618;1.474;2024-01-07T21:16:44;4.50;1.00
31975;DHT22;18500;43.618;1.474;2024-01-07T21:19:10;4.50;1.00
31975;DHT22;18500;43.618;1.474;2024-01-07T21:21:36;4.50;1.00
31975;DHT22;18500;43.618;1.474;2024-01-07T21:24:02;4.50;1.00
31975;DHT22;18500;43.618;1.474;2024-01-07T21:26:28;4.50;1.00
31975;DHT22;18500;43.618;1.474;2024-01-07T21:28:56;4.50;1.00
31975;DHT22;18500;43.618;1.474;2024-01-07T21:31:21;4.50;1.00
31975;DHT22;18500;43.618;1.474;2024-01-07T21:33:47;4.40;1.00
31975;DHT22;18500;43.618;1.474;2024-01-07T21:36:13;4.50;1.00
31975;DHT22;18500;43.618;1.474;2024-01-07T21:38:42;4.40;1.00
31975;DHT22;18500;43.618;1.474;2024-01-07T21:41:08;4.50;1.00
31975;DHT22;18500;43.618;1.474;2024-01-07T21:43:33;4.40;1.00
31975;DHT22;18500;43.618;1.474;2024-01-07T21:45:59;4.40;1.00
31975;DHT22;18500;43.618;1.474;2024-01-07T21:48:28;4.50;1.00
31975;DHT22;18500;43.618;1.474;2024-01-07T21:50:59;4.40;1.00
31975;DHT22;18500;43.618;1.474;2024-01-07T21:53:24;4.40;1.00
31975;DHT22;18500;43.618;1.474;2024-01-07T21:55:50;4.40;1.00
31975;DHT22;18500;43.618;1.474;2024-01-07T21:58:16;4.40;1.00
31975;DHT22;18500;43.618;1.474;2024-01-07T22:00:42;4.40;1.00
31975;DHT22;18500;43.618;1.474;2024-01-07T22:03:07;4.40;1.00
31975;DHT22;18500;43.618;1.474;2024-01-07T22:05:33;4.40;1.00
